createdAt,value
2022-11-29T00:03:01.433Z,56.60
2022-11-29T00:05:48.461Z,50.90
2022-11-29T00:08:36.398Z,53.40
2022-11-29T00:11:43.252Z,73.60
2022-11-29T00:14:30.600Z,81.50
2022-11-29T00:17:17.352Z,77.90
2022-11-29T00:20:04.456Z,75.90
2022-11-29T00:22:51.600Z,64.80
2022-11-29T00:25:38.832Z,77.20
2022-11-29T00:28:25.692Z,85.30
2022-11-29T00:31:16.384Z,79.20
2022-11-29T00:34:04.774Z,72.40
2022-11-29T00:36:51.994Z,71.30
2022-11-29T00:39:38.558Z,104.40
2022-11-29T00:42:25.491Z,109.80
2022-11-29T00:45:12.257Z,131.90
2022-11-29T00:47:58.928Z,132.50
2022-11-29T00:50:45.634Z,107.10
2022-11-29T00:53:33.715Z,129.80
2022-11-29T00:56:20.637Z,124.80
2022-11-29T00:59:07.394Z,103.60
2022-11-29T01:01:54.122Z,136.90
2022-11-29T01:04:41.132Z,125.40
2022-11-29T01:07:28.022Z,123.70
2022-11-29T01:10:15.303Z,134.10
2022-11-29T01:13:01.862Z,98.00
2022-11-29T01:15:55.378Z,121.30
2022-11-29T01:18:42.415Z,128.00
2022-11-29T01:21:29.158Z,96.50
2022-11-29T01:24:15.845Z,125.00
2022-11-29T01:27:02.486Z,135.50
2022-11-29T01:29:49.239Z,129.40
2022-11-29T01:32:36.398Z,131.60
2022-11-29T01:35:23.402Z,115.10
2022-11-29T01:38:10.086Z,115.00
2022-11-29T01:41:07.297Z,115.10
2022-11-29T01:43:55.404Z,105.60
2022-11-29T01:46:43.683Z,105.20
2022-11-29T01:49:34.054Z,112.80
2022-11-29T01:52:25.576Z,123.30
2022-11-29T01:55:13.021Z,142.90
2022-11-29T01:58:00.486Z,133.70
2022-11-29T02:04:17.785Z,124.00
2022-11-29T02:07:05.542Z,117.10
2022-11-29T02:09:52.433Z,84.10
2022-11-29T02:12:45.402Z,98.70
2022-11-29T02:15:51.571Z,100.10
2022-11-29T02:18:49.670Z,104.60
2022-11-29T02:21:36.273Z,86.20
2022-11-29T02:24:23.299Z,90.80
2022-11-29T02:27:42.864Z,79.20
2022-11-29T02:30:38.500Z,68.70
2022-11-29T02:33:34.790Z,76.60
2022-11-29T02:36:24.876Z,80.80
2022-11-29T02:39:11.798Z,74.80
2022-11-29T02:42:10.895Z,49.10
2022-11-29T02:45:14.714Z,58.70
2022-11-29T02:48:04.327Z,78.90
2022-11-29T02:51:10.160Z,69.30
2022-11-29T02:54:04.348Z,70.20
2022-11-29T02:56:57.224Z,69.50
2022-11-29T02:59:53.127Z,69.50
2022-11-29T03:02:43.252Z,57.30
2022-11-29T03:05:30.098Z,59.00
2022-11-29T03:08:25.756Z,70.30
2022-11-29T03:11:31.232Z,60.30
2022-11-29T03:14:28.760Z,72.70
2022-11-29T03:17:30.681Z,67.50
2022-11-29T03:20:26.606Z,73.60
2022-11-29T03:23:23.756Z,70.20
2022-11-29T03:26:29.509Z,59.70
2022-11-29T03:29:32.626Z,60.80
2022-11-29T03:32:27.770Z,54.40
2022-11-29T03:35:17.497Z,51.10
2022-11-29T03:38:13.340Z,64.80
2022-11-29T03:41:05.809Z,55.60
2022-11-29T03:46:46.372Z,37.90
2022-11-29T03:49:35.808Z,73.50
2022-11-29T03:52:35.680Z,53.60
2022-11-29T03:55:22.192Z,63.20
2022-11-29T03:58:14.860Z,68.00
2022-11-29T04:01:07.930Z,59.00
2022-11-29T04:04:09.808Z,67.90
2022-11-29T04:07:17.434Z,51.10
2022-11-29T04:10:04.287Z,66.30
2022-11-29T04:12:51.189Z,62.20
2022-11-29T04:15:40.745Z,58.20
2022-11-29T04:18:46.481Z,65.80
2022-11-29T04:21:39.625Z,44.60
2022-11-29T04:24:35.843Z,50.70
2022-11-29T04:27:22.346Z,57.60
2022-11-29T04:30:24.794Z,59.20
2022-11-29T04:33:21.177Z,72.10
2022-11-29T04:36:23.588Z,86.80
2022-11-29T04:39:29.224Z,85.00
2022-11-29T04:42:16.460Z,72.50
2022-11-29T04:45:03.108Z,77.90
2022-11-29T04:47:50.507Z,91.30
2022-11-29T04:50:53.392Z,70.50
2022-11-29T04:53:40.332Z,78.60
2022-11-29T04:56:30.194Z,56.90
2022-11-29T04:59:25.684Z,82.40
2022-11-29T05:02:23.817Z,67.20
2022-11-29T05:05:16.965Z,89.90
2022-11-29T05:08:13.110Z,70.10
2022-11-29T05:11:06.658Z,90.90
2022-11-29T05:13:56.860Z,68.50
2022-11-29T05:17:02.578Z,66.40
2022-11-29T05:20:01.091Z,62.30
2022-11-29T05:22:54.406Z,66.00
2022-11-29T05:25:54.558Z,67.30
2022-11-29T05:28:50.544Z,79.50
2022-11-29T05:31:46.840Z,58.90
2022-11-29T05:34:46.487Z,59.30
2022-11-29T05:37:45.397Z,55.70
2022-11-29T05:40:32.408Z,61.00
2022-11-29T05:43:22.099Z,79.10
2022-11-29T05:46:21.602Z,82.50
2022-11-29T05:49:17.161Z,76.50
2022-11-29T05:52:04.211Z,82.00
2022-11-29T05:54:50.661Z,54.30
2022-11-29T05:57:37.846Z,69.00
2022-11-29T06:00:24.863Z,64.70
2022-11-29T06:03:34.014Z,81.40
2022-11-29T06:06:43.530Z,75.30
2022-11-29T06:09:33.949Z,96.40
2022-11-29T06:12:21.688Z,96.60
2022-11-29T06:15:17.784Z,92.60
2022-11-29T06:18:10.454Z,97.10
2022-11-29T06:21:02.609Z,59.40
2022-11-29T06:23:55.351Z,93.30
2022-11-29T06:26:54.957Z,113.70
2022-11-29T06:29:41.776Z,71.10
2022-11-29T06:32:29.001Z,110.90
2022-11-29T06:35:28.389Z,82.50
2022-11-29T06:38:15.511Z,87.60
2022-11-29T06:41:02.772Z,85.20
2022-11-29T06:43:50.000Z,91.90
2022-11-29T06:46:57.752Z,75.40
2022-11-29T06:49:53.977Z,53.70
2022-11-29T06:52:48.537Z,82.80
2022-11-29T06:55:54.213Z,65.20
2022-11-29T06:58:49.880Z,88.70
2022-11-29T07:01:42.846Z,80.00
2022-11-29T07:04:38.064Z,75.00
2022-11-29T07:07:28.073Z,59.20
2022-11-29T07:10:17.220Z,65.80
2022-11-29T07:13:04.136Z,66.80
2022-11-29T07:15:54.452Z,55.80
2022-11-29T07:19:01.536Z,59.50
2022-11-29T07:22:04.611Z,66.60
2022-11-29T07:25:07.605Z,63.00
2022-11-29T07:27:54.418Z,73.20
2022-11-29T07:30:40.953Z,75.40
2022-11-29T07:33:42.133Z,75.20
2022-11-29T07:36:34.027Z,107.00
2022-11-29T07:39:31.843Z,90.40
2022-11-29T07:42:40.990Z,89.90
2022-11-29T07:45:29.006Z,79.90
2022-11-29T07:48:16.533Z,83.80
2022-11-29T07:51:03.786Z,74.80
2022-11-29T07:53:50.669Z,73.80
2022-11-29T07:56:37.597Z,74.60
2022-11-29T07:59:24.178Z,79.20
2022-11-29T08:02:12.120Z,58.70
2022-11-29T08:04:58.848Z,62.90
2022-11-29T08:07:47.591Z,63.30
2022-11-29T08:10:35.657Z,56.70
2022-11-29T08:13:22.436Z,47.30
2022-11-29T08:16:17.807Z,49.30
2022-11-29T08:19:05.027Z,44.40
2022-11-29T08:21:52.304Z,38.70
2022-11-29T08:24:39.768Z,33.50
2022-11-29T08:27:26.508Z,33.20
2022-11-29T08:30:13.918Z,26.60
2022-11-29T08:33:01.028Z,48.00
2022-11-29T08:35:47.853Z,33.10
2022-11-29T08:38:34.915Z,41.10
2022-11-29T08:41:22.193Z,35.80
2022-11-29T08:44:08.954Z,34.00
2022-11-29T08:47:14.436Z,31.60
2022-11-29T08:50:01.273Z,32.70
2022-11-29T08:53:07.890Z,35.60
2022-11-29T08:55:59.050Z,31.00
2022-11-29T08:58:46.389Z,33.20
2022-11-29T09:01:32.863Z,32.90
2022-11-29T09:04:19.966Z,30.50
2022-11-29T09:07:06.853Z,30.20
2022-11-29T09:09:53.447Z,31.10
2022-11-29T09:12:40.194Z,32.60
2022-11-29T09:15:26.969Z,28.20
2022-11-29T09:18:13.527Z,33.00
2022-11-29T09:21:00.364Z,32.20
2022-11-29T09:23:47.034Z,29.30
2022-11-29T09:26:35.992Z,31.20
2022-11-29T09:29:22.820Z,36.60
2022-11-29T09:32:09.986Z,30.60
2022-11-29T09:34:57.127Z,29.50
2022-11-29T09:37:43.939Z,33.30
2022-11-29T09:40:37.720Z,27.90
2022-11-29T09:43:34.207Z,28.70
2022-11-29T09:46:40.225Z,36.60
2022-11-29T09:49:42.212Z,31.10
2022-11-29T09:55:35.279Z,33.90
2022-11-29T09:58:23.726Z,23.70
2022-11-29T10:01:14.048Z,28.00
2022-11-29T10:04:03.038Z,38.70
2022-11-29T10:06:50.092Z,33.00
2022-11-29T10:09:40.835Z,31.80
2022-11-29T10:12:35.220Z,26.80
2022-11-29T10:15:32.040Z,31.20
2022-11-29T10:18:24.152Z,31.90
2022-11-29T10:24:14.919Z,30.60
2022-11-29T10:27:18.388Z,29.20
2022-11-29T10:30:15.231Z,29.20
2022-11-29T10:33:16.020Z,24.90
2022-11-29T10:36:22.032Z,28.10
2022-11-29T10:39:22.340Z,23.10
2022-11-29T10:42:37.510Z,23.80
2022-11-29T10:45:35.276Z,23.40
2022-11-29T10:48:23.239Z,24.60
2022-11-29T10:51:16.417Z,22.80
2022-11-29T10:54:13.087Z,22.70
2022-11-29T10:57:00.756Z,25.20
2022-11-29T11:00:07.490Z,25.60
2022-11-29T11:02:54.203Z,22.10
2022-11-29T11:05:41.254Z,23.30
2022-11-29T11:08:28.567Z,20.60
2022-11-29T11:11:23.243Z,23.60
2022-11-29T11:14:24.409Z,22.10
2022-11-29T11:17:26.507Z,20.10
2022-11-29T11:23:02.262Z,25.20
2022-11-29T11:25:55.454Z,24.50
2022-11-29T11:28:43.815Z,23.90
2022-11-29T11:31:40.350Z,30.10
2022-11-29T11:34:34.456Z,22.20
2022-11-29T11:37:23.010Z,21.80
2022-11-29T11:40:26.078Z,20.90
2022-11-29T11:43:17.975Z,23.70
2022-11-29T11:46:06.846Z,21.80
2022-11-29T11:48:55.002Z,24.10
2022-11-29T11:51:43.127Z,24.30
2022-11-29T11:54:30.751Z,23.30
2022-11-29T11:57:18.843Z,22.80
2022-11-29T12:00:07.313Z,24.40
2022-11-29T12:02:59.106Z,26.00
2022-11-29T12:05:47.394Z,23.70
2022-11-29T12:08:36.288Z,23.80
2022-11-29T12:11:24.126Z,23.50
2022-11-29T12:14:16.011Z,26.00
2022-11-29T12:17:32.299Z,25.60
2022-11-29T12:20:24.983Z,25.00
2022-11-29T12:26:06.789Z,26.30
2022-11-29T12:28:53.322Z,24.20
2022-11-29T12:31:59.045Z,25.20
2022-11-29T12:34:49.499Z,31.70
2022-11-29T12:37:36.362Z,28.10
2022-11-29T12:40:28.044Z,32.90
2022-11-29T12:46:13.364Z,35.80
2022-11-29T12:49:12.089Z,41.30
2022-11-29T12:52:07.373Z,43.70
2022-11-29T12:55:00.463Z,38.00
2022-11-29T12:58:09.230Z,44.30
2022-11-29T13:01:11.499Z,42.90
2022-11-29T13:04:17.291Z,42.50
2022-11-29T13:07:20.887Z,34.70
2022-11-29T13:10:25.120Z,44.20
2022-11-29T13:13:25.675Z,35.60
2022-11-29T13:16:31.028Z,39.60
2022-11-29T13:19:33.684Z,39.60
2022-11-29T13:22:38.648Z,47.70
2022-11-29T13:25:28.805Z,51.90
2022-11-29T13:28:29.597Z,29.80
2022-11-29T13:31:21.037Z,67.00
2022-11-29T13:34:15.882Z,44.20
2022-11-29T13:37:12.194Z,36.30
2022-11-29T13:40:14.075Z,29.90
2022-11-29T13:43:20.219Z,36.60
2022-11-29T13:46:26.071Z,36.10
2022-11-29T13:49:42.581Z,37.70
2022-11-29T13:52:38.502Z,41.10
2022-11-29T13:55:31.927Z,48.80
2022-11-29T13:58:18.992Z,30.30
2022-11-29T14:01:06.525Z,38.40
2022-11-29T14:04:01.450Z,39.00
2022-11-29T14:06:49.472Z,33.60
2022-11-29T14:09:41.313Z,43.00
2022-11-29T14:12:35.992Z,31.90
2022-11-29T14:15:29.520Z,30.70
2022-11-29T14:18:35.053Z,31.90
2022-11-29T14:24:27.577Z,29.40
2022-11-29T14:28:41.732Z,35.20
2022-11-29T14:31:49.377Z,38.10
2022-11-29T14:34:43.923Z,31.60
2022-11-29T14:37:40.383Z,48.10
2022-11-29T14:40:42.564Z,30.40
2022-11-29T14:43:35.623Z,26.40
2022-11-29T14:46:29.443Z,28.90
2022-11-29T14:49:26.384Z,28.70
2022-11-29T14:52:21.638Z,34.70
2022-11-29T14:55:08.683Z,37.50
2022-11-29T14:58:01.432Z,37.70
2022-11-29T15:00:48.422Z,26.10
2022-11-29T15:03:37.663Z,39.90
2022-11-29T15:06:26.238Z,31.60
2022-11-29T15:09:20.351Z,30.00
2022-11-29T15:12:16.833Z,42.20
2022-11-29T15:16:52.632Z,31.30
2022-11-29T15:19:48.134Z,32.10
2022-11-29T15:22:54.933Z,29.60
2022-11-29T15:25:48.995Z,27.10
2022-11-29T15:28:36.072Z,25.00
2022-11-29T15:31:28.801Z,27.80
2022-11-29T15:34:45.314Z,29.80
2022-11-29T15:37:37.929Z,30.10
2022-11-29T15:40:39.101Z,29.70
2022-11-29T15:45:25.523Z,29.80
2022-11-29T15:48:25.546Z,38.10
2022-11-29T15:51:29.709Z,31.80
2022-11-29T15:54:31.224Z,35.30
2022-11-29T15:57:34.544Z,33.90
2022-11-29T16:00:30.566Z,30.70
2022-11-29T16:03:25.690Z,26.80
2022-11-29T16:06:35.999Z,29.20
2022-11-29T16:09:33.051Z,22.90
2022-11-29T16:12:19.759Z,29.80
2022-11-29T16:15:24.024Z,21.60
2022-11-29T16:18:13.085Z,34.10
2022-11-29T16:21:02.126Z,30.90
2022-11-29T16:23:49.318Z,23.60
2022-11-29T16:26:38.672Z,25.10
2022-11-29T16:29:35.736Z,28.80
2022-11-29T16:32:33.872Z,32.80
2022-11-29T16:35:27.662Z,31.20
2022-11-29T16:38:19.989Z,32.50
2022-11-29T16:43:55.519Z,31.20
2022-11-29T16:46:42.013Z,24.00
2022-11-29T16:49:34.126Z,27.60
2022-11-29T16:52:28.381Z,26.40
2022-11-29T16:55:16.697Z,28.40
2022-11-29T16:58:03.928Z,33.50
2022-11-29T17:00:51.488Z,40.30
2022-11-29T17:03:38.081Z,31.90
2022-11-29T17:06:25.515Z,40.60
2022-11-29T17:09:22.981Z,33.80
2022-11-29T17:12:13.217Z,34.90
2022-11-29T17:14:59.873Z,34.10
2022-11-29T17:17:46.992Z,42.20
2022-11-29T17:20:33.946Z,49.60
2022-11-29T17:23:21.102Z,53.20
2022-11-29T17:26:07.835Z,39.20
2022-11-29T17:28:54.608Z,42.50
2022-11-29T17:31:42.788Z,32.00
2022-11-29T17:34:30.114Z,35.10
2022-11-29T17:37:16.845Z,40.40
2022-11-29T17:40:04.067Z,40.60
2022-11-29T17:42:50.966Z,51.90
2022-11-29T17:45:38.414Z,46.50
2022-11-29T17:48:28.088Z,37.90
2022-11-29T17:54:24.373Z,38.60
2022-11-29T17:57:11.032Z,38.40
2022-11-29T17:59:57.707Z,32.30
2022-11-29T18:02:44.395Z,47.10
2022-11-29T18:05:34.565Z,53.10
2022-11-29T18:08:21.742Z,68.60
2022-11-29T18:11:11.876Z,55.50
2022-11-29T18:13:59.613Z,36.50
2022-11-29T18:16:46.813Z,52.30
2022-11-29T18:19:34.034Z,54.30
2022-11-29T18:22:21.150Z,47.20
2022-11-29T18:25:37.078Z,58.50
2022-11-29T18:28:14.939Z,43.60
2022-11-29T18:31:12.584Z,39.10
2022-11-29T18:34:00.581Z,61.50
2022-11-29T18:36:48.202Z,38.60
2022-11-29T18:39:35.296Z,62.20
2022-11-29T18:42:22.068Z,61.10
2022-11-29T18:45:08.904Z,60.80
2022-11-29T18:47:55.773Z,33.20
2022-11-29T18:50:42.390Z,47.80
2022-11-29T18:53:29.439Z,53.40
2022-11-29T18:56:17.088Z,40.90
2022-11-29T18:59:05.510Z,43.60
2022-11-29T19:01:52.164Z,38.00
2022-11-29T19:04:38.871Z,44.40
2022-11-29T19:07:26.294Z,38.80
2022-11-29T19:10:13.052Z,29.10
2022-11-29T19:12:59.871Z,65.10
2022-11-29T19:15:53.764Z,46.80
2022-11-29T19:18:40.639Z,65.70
2022-11-29T19:21:28.206Z,53.70
2022-11-29T19:24:15.894Z,53.20
2022-11-29T19:27:04.846Z,51.40
2022-11-29T19:29:51.709Z,61.80
2022-11-29T19:32:38.394Z,44.80
2022-11-29T19:35:25.198Z,57.70
2022-11-29T19:38:11.865Z,54.40
2022-11-29T19:40:58.500Z,44.70
2022-11-29T19:43:45.599Z,52.90
2022-11-29T19:46:33.961Z,49.90
2022-11-29T19:49:21.253Z,53.90
2022-11-29T19:52:08.184Z,48.10
2022-11-29T19:54:55.129Z,45.50
2022-11-29T19:57:42.244Z,53.70
2022-11-29T20:00:29.891Z,43.40
2022-11-29T20:03:16.862Z,52.00
2022-11-29T20:06:04.346Z,59.70
2022-11-29T20:08:51.389Z,51.80
2022-11-29T20:11:38.182Z,49.20
2022-11-29T20:14:25.112Z,38.50
2022-11-29T20:17:11.917Z,44.90
2022-11-29T20:19:58.608Z,36.60
2022-11-29T20:22:45.182Z,46.10
2022-11-29T20:25:32.237Z,23.40
2022-11-29T20:28:19.240Z,44.60
2022-11-29T20:31:07.277Z,56.00
2022-11-29T20:33:57.095Z,34.60
2022-11-29T20:36:53.294Z,40.20
2022-11-29T20:39:52.946Z,32.50
2022-11-29T20:42:52.182Z,33.40
2022-11-29T20:45:39.450Z,34.20
2022-11-29T20:48:26.061Z,33.20
2022-11-29T20:51:12.743Z,42.00
2022-11-29T20:53:59.498Z,38.30
2022-11-29T20:56:47.867Z,34.20
2022-11-29T20:59:34.571Z,38.20
2022-11-29T21:02:21.322Z,43.60
2022-11-29T21:05:08.375Z,36.80
2022-11-29T21:07:55.279Z,33.60
2022-11-29T21:10:42.227Z,33.60
2022-11-29T21:13:29.089Z,42.10
2022-11-29T21:16:15.887Z,30.10
2022-11-29T21:19:02.658Z,33.90
2022-11-29T21:21:52.837Z,40.50
2022-11-29T21:24:52.108Z,42.50
2022-11-29T21:27:39.325Z,32.30
2022-11-29T21:30:26.228Z,39.70
2022-11-29T21:33:13.351Z,54.30
2022-11-29T21:35:59.921Z,38.70
2022-11-29T21:38:53.931Z,37.00
2022-11-29T21:41:41.448Z,36.10
2022-11-29T21:44:28.670Z,39.90
2022-11-29T21:47:15.118Z,27.80
2022-11-29T21:50:02.320Z,33.00
2022-11-29T21:52:50.901Z,39.00
2022-11-29T21:55:37.960Z,41.10
2022-11-29T21:58:24.868Z,38.60
2022-11-29T22:01:13.611Z,37.60
2022-11-29T22:04:00.265Z,38.70
2022-11-29T22:06:47.552Z,31.80
2022-11-29T22:09:34.229Z,50.40
2022-11-29T22:12:36.731Z,35.10
2022-11-29T22:15:25.206Z,34.80
2022-11-29T22:18:12.989Z,38.80
2022-11-29T22:21:04.005Z,36.70
2022-11-29T22:23:52.245Z,35.30
2022-11-29T22:26:39.480Z,40.60
2022-11-29T22:29:26.612Z,39.10
2022-11-29T22:32:13.519Z,30.20
2022-11-29T22:35:00.906Z,41.50
2022-11-29T22:37:48.019Z,38.30
2022-11-29T22:40:35.251Z,31.80
2022-11-29T22:43:21.963Z,38.90
2022-11-29T22:46:10.459Z,32.20
2022-11-29T22:49:00.623Z,56.00
2022-11-29T22:51:47.873Z,45.20
2022-11-29T22:54:34.284Z,40.20
2022-11-29T22:57:21.622Z,37.20
2022-11-29T23:00:08.375Z,38.00
2022-11-29T23:02:58.497Z,40.80
2022-11-29T23:05:45.064Z,42.30
2022-11-29T23:08:32.406Z,36.60
2022-11-29T23:11:23.428Z,45.40
2022-11-29T23:14:10.501Z,31.70
2022-11-29T23:16:57.420Z,33.70
2022-11-29T23:19:44.094Z,39.90
2022-11-29T23:22:31.704Z,43.20
2022-11-29T23:25:18.973Z,36.30
2022-11-29T23:28:05.763Z,30.50
2022-11-29T23:30:54.384Z,32.10
2022-11-29T23:33:41.255Z,38.40
2022-11-29T23:36:27.913Z,34.90
2022-11-29T23:39:14.901Z,52.70
2022-11-29T23:42:01.768Z,40.20
2022-11-29T23:44:48.969Z,31.40
2022-11-29T23:47:36.042Z,32.50
2022-11-29T23:50:23.410Z,30.60
2022-11-29T23:53:13.615Z,26.00
2022-11-29T23:56:01.807Z,37.90
2022-11-29T23:58:49.004Z,36.70
